Harrisville, Vermont
Current Conditions -  °F | °C
As of 5:35 PM on Tuesday 21 Oct 2014 (Local Time) from KEEN Reporting Station
Overcast Overcast  
Wind Chill: 54°   Ceiling: 1300
Heat Index: 54°   Visibility: 10mi
Dew Point: 43°   Wind: 7mph
Humidity: 67%   Direction: 10°N
Pressure: 29.95"   Gusts: NA
Location:  42.8513°N, 72.6568°W
Report Text: KEEN 212135Z AUTO 01006KT 10SM OVC013 12/06 A2995 RMK AO1
Loading
Personal Weather Stations






























Interactive Weather Map
Tropical Storm Tracking
New forecast layout! Learn more

10-Day Weather Forecast

Advertisements
Track Severe Weather on mobile